createdAt,value
2023-03-16T00:02:31.378Z,101691.16
2023-03-16T00:07:35.519Z,101684.75
2023-03-16T00:12:38.037Z,101699.19
2023-03-16T00:17:40.741Z,101705.91
2023-03-16T00:22:45.009Z,101711.84
2023-03-16T00:27:47.525Z,101703.75
2023-03-16T00:32:50.081Z,101710.63
2023-03-16T00:37:57.309Z,101710.09
2023-03-16T00:42:59.830Z,101707.47
2023-03-16T00:48:02.332Z,101704.25
2023-03-16T00:53:06.274Z,101705.16
2023-03-16T00:58:08.796Z,101702.22
2023-03-16T01:03:11.312Z,101710.94
2023-03-16T01:08:15.930Z,101700.84
2023-03-16T01:13:18.444Z,101704.78
2023-03-16T01:18:22.424Z,101703.53
2023-03-16T01:23:26.319Z,101704.72
2023-03-16T01:28:33.413Z,101706.22
2023-03-16T01:33:37.394Z,101705.28
2023-03-16T01:38:41.620Z,101707.56
2023-03-16T01:43:44.216Z,101706.66
2023-03-16T01:48:52.794Z,101707.41
2023-03-16T01:54:00.030Z,101706.34
2023-03-16T01:59:07.019Z,101706.00
2023-03-16T02:04:23.060Z,101699.56
2023-03-16T02:09:28.553Z,101704.44
2023-03-16T02:14:31.653Z,101709.44
2023-03-16T02:19:44.620Z,101708.19
2023-03-16T02:24:48.464Z,101714.72
2023-03-16T02:30:03.875Z,101720.16
2023-03-16T02:35:08.442Z,101723.91
2023-03-16T02:40:24.261Z,101729.69
2023-03-16T02:45:33.431Z,101732.84
2023-03-16T02:50:36.950Z,101741.34
2023-03-16T02:55:39.426Z,101744.69
2023-03-16T03:00:43.649Z,101748.06
2023-03-16T03:05:46.147Z,101741.03
2023-03-16T03:10:48.665Z,101746.63
2023-03-16T03:15:52.625Z,101749.44
2023-03-16T03:20:55.218Z,101759.47
2023-03-16T03:25:59.216Z,101763.41
2023-03-16T03:31:03.040Z,101766.56
2023-03-16T03:36:06.492Z,101767.31
2023-03-16T03:41:09.098Z,101774.75
2023-03-16T03:46:12.984Z,101770.88
2023-03-16T03:51:15.550Z,101770.88
2023-03-16T03:56:18.030Z,101776.50
2023-03-16T04:01:21.967Z,101783.16
2023-03-16T04:06:24.490Z,101783.22
2023-03-16T04:11:27.132Z,101783.94
2023-03-16T04:16:31.293Z,101782.88
2023-03-16T04:21:33.821Z,101782.53
2023-03-16T04:26:36.425Z,101793.06
2023-03-16T04:31:40.240Z,101796.53
2023-03-16T04:36:42.821Z,101808.41
2023-03-16T04:41:45.346Z,101811.44
2023-03-16T04:46:49.152Z,101820.41
2023-03-16T04:51:51.727Z,101819.19
2023-03-16T04:56:54.339Z,101823.84
2023-03-16T05:01:58.292Z,101819.97
2023-03-16T05:07:00.880Z,101811.16
2023-03-16T05:12:03.397Z,101814.25
2023-03-16T05:17:07.262Z,101807.84
2023-03-16T05:22:09.972Z,101808.91
2023-03-16T05:27:12.542Z,101822.78
2023-03-16T05:32:17.597Z,101830.41
2023-03-16T05:37:20.116Z,101828.16
2023-03-16T05:42:22.612Z,101839.28
2023-03-16T05:47:26.552Z,101850.94
2023-03-16T05:52:29.048Z,101851.75
2023-03-16T05:57:31.533Z,101851.50
2023-03-16T06:02:35.429Z,101851.88
2023-03-16T06:07:38.004Z,101855.91
2023-03-16T06:12:41.169Z,101855.22
2023-03-16T06:17:45.034Z,101854.66
2023-03-16T06:22:47.525Z,101864.38
2023-03-16T06:27:50.180Z,101863.31
2023-03-16T06:32:54.052Z,101873.47
2023-03-16T06:37:56.577Z,101880.66
2023-03-16T06:42:59.054Z,101893.91
2023-03-16T06:48:02.931Z,101905.88
2023-03-16T06:53:05.418Z,101908.00
2023-03-16T06:58:08.173Z,101912.00
2023-03-16T07:03:12.711Z,101918.22
2023-03-16T07:08:15.327Z,101907.44
2023-03-16T07:13:18.061Z,101912.72
2023-03-16T07:18:22.138Z,101925.94
2023-03-16T07:23:25.257Z,101922.34
2023-03-16T07:28:27.952Z,101913.72
2023-03-16T07:33:32.286Z,101922.59
2023-03-16T07:38:34.885Z,101925.72
2023-03-16T07:43:37.468Z,101928.22
2023-03-16T07:48:42.470Z,101925.13
2023-03-16T07:53:44.944Z,101922.97
2023-03-16T07:58:47.413Z,101927.38
2023-03-16T08:03:51.306Z,101940.38
2023-03-16T08:08:54.376Z,101944.78
2023-03-16T08:13:56.887Z,101948.72
2023-03-16T08:19:01.271Z,101950.84
2023-03-16T08:24:03.930Z,101943.38
2023-03-16T08:29:06.592Z,101946.75
2023-03-16T08:34:11.198Z,101960.78
2023-03-16T08:39:13.836Z,101973.09
2023-03-16T08:44:17.412Z,101973.91
2023-03-16T08:49:21.653Z,101978.09
2023-03-16T08:54:24.173Z,101984.94
2023-03-16T08:59:30.152Z,101978.75
2023-03-16T09:04:34.540Z,101977.16
2023-03-16T09:09:37.416Z,101978.56
2023-03-16T09:14:40.120Z,101969.53
2023-03-16T09:19:53.199Z,101972.75
2023-03-16T09:24:56.905Z,101965.16
2023-03-16T09:30:00.637Z,101961.66
2023-03-16T09:35:06.182Z,101971.19
2023-03-16T09:40:14.481Z,101967.69
2023-03-16T09:45:23.252Z,101961.88
2023-03-16T09:50:47.387Z,101957.88
2023-03-16T09:55:54.743Z,101962.50
2023-03-16T10:01:09.867Z,101957.56
2023-03-16T10:06:14.772Z,101955.81
2023-03-16T10:11:25.580Z,101955.75
2023-03-16T10:16:34.468Z,101957.56
2023-03-16T10:21:41.072Z,101944.81
2023-03-16T10:26:50.000Z,101944.84
2023-03-16T10:31:53.379Z,101942.13
2023-03-16T10:36:57.893Z,101938.59
2023-03-16T10:42:00.407Z,101932.31
2023-03-16T10:47:05.481Z,101918.72
2023-03-16T10:52:16.837Z,101918.56
2023-03-16T10:57:25.419Z,101914.47
2023-03-16T11:02:34.072Z,101913.06
2023-03-16T11:07:39.237Z,101904.69
2023-03-16T11:12:42.296Z,101906.59
2023-03-16T11:17:50.042Z,101902.50
2023-03-16T11:22:54.385Z,101898.72
2023-03-16T11:28:08.376Z,101895.91
2023-03-16T11:33:14.002Z,101889.94
2023-03-16T11:38:21.573Z,101889.84
2023-03-16T11:43:51.042Z,101884.84
2023-03-16T11:49:17.592Z,101878.53
2023-03-16T11:54:45.969Z,101873.91
2023-03-16T12:00:27.562Z,101861.63
2023-03-16T12:05:46.099Z,101852.91
2023-03-16T12:10:57.258Z,101833.31
2023-03-16T12:16:05.582Z,101831.63
2023-03-16T12:21:15.136Z,101831.75
2023-03-16T12:26:19.384Z,101827.19
2023-03-16T12:31:29.290Z,101826.28
2023-03-16T12:36:47.898Z,101816.84
2023-03-16T12:42:08.333Z,101817.88
2023-03-16T12:47:22.263Z,101799.59
2023-03-16T12:52:24.770Z,101799.00
2023-03-16T12:57:28.754Z,101796.66
2023-03-16T13:02:33.274Z,101798.59
2023-03-16T13:07:36.353Z,101801.13
2023-03-16T13:12:41.711Z,101792.94
2023-03-16T13:17:44.697Z,101792.63
2023-03-16T13:22:50.814Z,101785.72
2023-03-16T13:27:58.031Z,101774.91
2023-03-16T13:33:05.133Z,101772.56
2023-03-16T13:38:15.649Z,101771.25
2023-03-16T13:43:23.422Z,101767.50
2023-03-16T13:48:26.213Z,101769.50
2023-03-16T13:53:30.944Z,101769.38
2023-03-16T13:58:39.644Z,101758.09
2023-03-16T14:03:43.447Z,101744.00
2023-03-16T14:08:49.548Z,101721.34
2023-03-16T14:13:54.649Z,101713.75
2023-03-16T14:19:02.519Z,101702.38
2023-03-16T14:24:07.151Z,101710.75
2023-03-16T14:29:19.405Z,101707.84
2023-03-16T14:34:28.791Z,101701.88
2023-03-16T14:39:31.294Z,101692.97
2023-03-16T14:44:38.256Z,101685.16
2023-03-16T14:49:43.218Z,101662.19
2023-03-16T14:54:46.616Z,101657.44
2023-03-16T14:59:50.538Z,101645.97
2023-03-16T15:04:53.458Z,101659.97
2023-03-16T15:10:10.420Z,101654.41
2023-03-16T15:15:18.065Z,101657.53
2023-03-16T15:20:26.325Z,101649.53
2023-03-16T15:25:36.840Z,101631.13
2023-03-16T15:30:40.920Z,101632.13
2023-03-16T15:35:44.232Z,101629.59
2023-03-16T15:40:47.938Z,101620.47
2023-03-16T15:45:54.069Z,101627.06
2023-03-16T15:51:00.766Z,101609.66
2023-03-16T15:56:06.678Z,101611.03
2023-03-16T16:01:21.208Z,101602.66
2023-03-16T16:06:24.084Z,101601.09
2023-03-16T16:11:29.156Z,101596.94
2023-03-16T16:16:34.264Z,101594.59
2023-03-16T16:21:36.816Z,101601.47
2023-03-16T16:26:50.514Z,101600.97
2023-03-16T16:31:57.252Z,101601.00
2023-03-16T16:36:59.900Z,101593.16
2023-03-16T16:42:02.468Z,101597.56
2023-03-16T16:47:18.663Z,101592.44
2023-03-16T16:52:21.173Z,101594.50
2023-03-16T16:57:23.697Z,101591.97
2023-03-16T17:02:32.172Z,101599.16
2023-03-16T17:07:34.711Z,101599.81
2023-03-16T17:12:37.192Z,101591.16
2023-03-16T17:17:41.293Z,101579.72
2023-03-16T17:22:46.533Z,101581.25
2023-03-16T17:27:51.180Z,101584.63
2023-03-16T17:33:08.058Z,101584.84
2023-03-16T17:38:18.581Z,101583.97
2023-03-16T17:43:23.860Z,101575.25
2023-03-16T17:48:27.709Z,101572.81
2023-03-16T17:53:30.218Z,101574.06
2023-03-16T17:58:32.739Z,101584.00
2023-03-16T18:03:36.857Z,101582.09
2023-03-16T18:08:39.375Z,101573.84
2023-03-16T18:13:42.515Z,101568.50
2023-03-16T18:18:47.708Z,101562.13
2023-03-16T18:23:50.412Z,101568.78
2023-03-16T18:28:53.563Z,101575.63
2023-03-16T18:34:00.624Z,101574.72
2023-03-16T18:39:06.317Z,101563.88
2023-03-16T18:44:17.776Z,101553.97
2023-03-16T18:49:23.890Z,101543.25
2023-03-16T18:54:28.762Z,101547.31
2023-03-16T18:59:32.244Z,101522.63
2023-03-16T19:04:36.261Z,101540.78
2023-03-16T19:12:59.937Z,101538.75
2023-03-16T19:19:43.874Z,101533.28
2023-03-16T19:24:49.669Z,101533.84
2023-03-16T19:29:53.551Z,101539.34
2023-03-16T19:34:57.664Z,101539.78
2023-03-16T19:40:00.471Z,101529.97
2023-03-16T19:45:04.541Z,101515.06
2023-03-16T19:50:15.647Z,101529.84
2023-03-16T19:55:21.204Z,101525.28
2023-03-16T20:00:26.869Z,101524.13
2023-03-16T20:05:32.947Z,101518.91
2023-03-16T20:10:35.551Z,101500.50
2023-03-16T20:15:38.620Z,101511.72
2023-03-16T20:20:43.884Z,101500.50
2023-03-16T20:25:47.985Z,101504.00
2023-03-16T20:30:51.626Z,101496.16
2023-03-16T20:35:56.304Z,101488.97
2023-03-16T20:40:58.997Z,101482.84
2023-03-16T20:46:03.906Z,101472.28
2023-03-16T20:51:13.704Z,101466.16
2023-03-16T20:56:17.589Z,101463.53
2023-03-16T21:01:21.655Z,101445.09
2023-03-16T21:06:28.355Z,101430.88
2023-03-16T21:11:35.446Z,101433.03
2023-03-16T21:16:38.644Z,101425.34
2023-03-16T21:21:42.669Z,101430.06
2023-03-16T21:26:47.318Z,101415.84
2023-03-16T21:31:50.220Z,101411.94
2023-03-16T21:36:54.363Z,101407.41
2023-03-16T21:41:57.024Z,101399.56
2023-03-16T21:46:59.788Z,101403.88
2023-03-16T21:52:03.825Z,101397.63
2023-03-16T21:57:15.162Z,101387.06
2023-03-16T22:02:21.166Z,101388.72
2023-03-16T22:07:25.405Z,101374.78
2023-03-16T22:12:27.930Z,101379.09
2023-03-16T22:17:33.140Z,101383.38
2023-03-16T22:22:37.057Z,101382.50
2023-03-16T22:27:40.018Z,101357.94
2023-03-16T22:32:42.676Z,101353.41
2023-03-16T22:37:46.631Z,101349.84
2023-03-16T22:42:49.183Z,101353.16
2023-03-16T22:47:52.130Z,101346.09
2023-03-16T22:52:59.345Z,101358.22
2023-03-16T22:58:07.665Z,101351.31
2023-03-16T23:03:17.716Z,101351.19
2023-03-16T23:08:23.449Z,101347.28
2023-03-16T23:13:26.982Z,101329.44
2023-03-16T23:18:29.507Z,101329.06
2023-03-16T23:23:33.680Z,101319.16
2023-03-16T23:28:36.241Z,101296.22
2023-03-16T23:33:39.188Z,101288.50
2023-03-16T23:38:43.649Z,101291.25
2023-03-16T23:43:47.392Z,101287.97
2023-03-16T23:48:51.909Z,101299.34
2023-03-16T23:53:56.313Z,101289.66
2023-03-16T23:58:58.838Z,101286.28
